sensor_id;sensor_type;location;lat;lon;timestamp;temperature;humidity
22173;DHT22;11252;50.596;17.648;2023-04-07T00:01:44;2.90;92.20
22173;DHT22;11252;50.596;17.648;2023-04-07T00:04:12;2.80;92.20
22173;DHT22;11252;50.596;17.648;2023-04-07T00:06:39;2.70;92.20
22173;DHT22;11252;50.596;17.648;2023-04-07T00:09:06;2.70;92.20
22173;DHT22;11252;50.596;17.648;2023-04-07T00:11:34;2.70;92.20
22173;DHT22;11252;50.596;17.648;2023-04-07T00:14:01;2.70;92.20
22173;DHT22;11252;50.596;17.648;2023-04-07T00:16:29;2.70;92.20
22173;DHT22;11252;50.596;17.648;2023-04-07T00:18:56;2.70;92.20
22173;DHT22;11252;50.596;17.648;2023-04-07T00:21:23;2.70;92.20
22173;DHT22;11252;50.596;17.648;2023-04-07T00:23:51;2.60;92.20
22173;DHT22;11252;50.596;17.648;2023-04-07T00:26:18;2.70;92.20
22173;DHT22;11252;50.596;17.648;2023-04-07T00:28:46;2.70;92.20
22173;DHT22;11252;50.596;17.648;2023-04-07T00:31:13;2.70;92.20
22173;DHT22;11252;50.596;17.648;2023-04-07T00:33:41;2.70;92.20
22173;DHT22;11252;50.596;17.648;2023-04-07T00:36:08;2.60;92.20
22173;DHT22;11252;50.596;17.648;2023-04-07T00:38:36;2.60;92.20
22173;DHT22;11252;50.596;17.648;2023-04-07T00:41:03;2.60;92.20
22173;DHT22;11252;50.596;17.648;2023-04-07T00:43:30;2.60;92.20
22173;DHT22;11252;50.596;17.648;2023-04-07T00:45:58;2.60;92.20
22173;DHT22;11252;50.596;17.648;2023-04-07T00:48:25;2.60;92.20
22173;DHT22;11252;50.596;17.648;2023-04-07T00:50:53;2.60;92.20
22173;DHT22;11252;50.596;17.648;2023-04-07T00:53:20;2.60;92.20
22173;DHT22;11252;50.596;17.648;2023-04-07T00:55:47;2.60;92.20
22173;DHT22;11252;50.596;17.648;2023-04-07T00:58:15;2.60;92.20
22173;DHT22;11252;50.596;17.648;2023-04-07T01:00:48;2.60;92.20
22173;DHT22;11252;50.596;17.648;2023-04-07T01:04:07;2.60;92.20
22173;DHT22;11252;50.596;17.648;2023-04-07T01:06:15;2.50;92.20
22173;DHT22;11252;50.596;17.648;2023-04-07T01:11:27;2.60;92.20
22173;DHT22;11252;50.596;17.648;2023-04-07T01:13:58;2.50;92.20
22173;DHT22;11252;50.596;17.648;2023-04-07T01:18:59;2.50;92.20
22173;DHT22;11252;50.596;17.648;2023-04-07T01:21:27;2.40;92.20
22173;DHT22;11252;50.596;17.648;2023-04-07T01:26:36;2.40;92.20
22173;DHT22;11252;50.596;17.648;2023-04-07T01:31:48;2.30;92.20
22173;DHT22;11252;50.596;17.648;2023-04-07T01:34:16;2.30;92.20
22173;DHT22;11252;50.596;17.648;2023-04-07T01:36:46;2.30;92.20
22173;DHT22;11252;50.596;17.648;2023-04-07T01:39:14;2.30;92.20
22173;DHT22;11252;50.596;17.648;2023-04-07T01:41:43;2.30;92.20
22173;DHT22;11252;50.596;17.648;2023-04-07T01:44:12;2.30;92.20
22173;DHT22;11252;50.596;17.648;2023-04-07T01:46:40;2.30;92.20
22173;DHT22;11252;50.596;17.648;2023-04-07T01:49:07;2.30;92.20
22173;DHT22;11252;50.596;17.648;2023-04-07T01:51:35;2.30;92.20
22173;DHT22;11252;50.596;17.648;2023-04-07T01:54:03;2.20;92.20
22173;DHT22;11252;50.596;17.648;2023-04-07T01:56:31;2.30;92.20
22173;DHT22;11252;50.596;17.648;2023-04-07T01:58:58;2.30;92.20
22173;DHT22;11252;50.596;17.648;2023-04-07T02:01:25;2.20;92.20
22173;DHT22;11252;50.596;17.648;2023-04-07T02:04:04;2.20;92.20
22173;DHT22;11252;50.596;17.648;2023-04-07T02:06:40;2.20;92.20
22173;DHT22;11252;50.596;17.648;2023-04-07T02:09:12;2.30;92.20
22173;DHT22;11252;50.596;17.648;2023-04-07T02:11:43;2.20;92.20
22173;DHT22;11252;50.596;17.648;2023-04-07T02:14:12;2.30;92.20
22173;DHT22;11252;50.596;17.648;2023-04-07T02:16:40;2.30;92.20
22173;DHT22;11252;50.596;17.648;2023-04-07T02:19:09;2.30;92.20
22173;DHT22;11252;50.596;17.648;2023-04-07T02:21:37;2.30;92.20
22173;DHT22;11252;50.596;17.648;2023-04-07T02:24:06;2.30;92.20
22173;DHT22;11252;50.596;17.648;2023-04-07T02:26:34;2.30;92.20
22173;DHT22;11252;50.596;17.648;2023-04-07T02:29:05;2.30;92.20
22173;DHT22;11252;50.596;17.648;2023-04-07T02:31:32;2.30;92.20
22173;DHT22;11252;50.596;17.648;2023-04-07T02:34:00;2.30;92.20
22173;DHT22;11252;50.596;17.648;2023-04-07T02:36:27;2.30;92.20
22173;DHT22;11252;50.596;17.648;2023-04-07T02:38:54;2.30;92.20
22173;DHT22;11252;50.596;17.648;2023-04-07T02:41:21;2.40;92.20
22173;DHT22;11252;50.596;17.648;2023-04-07T02:43:49;2.40;92.20
22173;DHT22;11252;50.596;17.648;2023-04-07T02:46:16;2.40;92.20
22173;DHT22;11252;50.596;17.648;2023-04-07T02:48:43;2.40;92.20
22173;DHT22;11252;50.596;17.648;2023-04-07T02:51:11;2.40;92.20
22173;DHT22;11252;50.596;17.648;2023-04-07T02:53:38;2.40;92.20
22173;DHT22;11252;50.596;17.648;2023-04-07T02:56:05;2.40;92.20
22173;DHT22;11252;50.596;17.648;2023-04-07T02:58:32;2.40;92.20
22173;DHT22;11252;50.596;17.648;2023-04-07T03:01:00;2.40;92.20
22173;DHT22;11252;50.596;17.648;2023-04-07T03:03:28;2.40;92.20
22173;DHT22;11252;50.596;17.648;2023-04-07T03:05:55;2.50;92.20
22173;DHT22;11252;50.596;17.648;2023-04-07T03:08:23;2.40;92.20
22173;DHT22;11252;50.596;17.648;2023-04-07T03:10:50;2.40;92.20
22173;DHT22;11252;50.596;17.648;2023-04-07T03:13:19;2.50;92.20
22173;DHT22;11252;50.596;17.648;2023-04-07T03:15:47;2.50;92.20
22173;DHT22;11252;50.596;17.648;2023-04-07T03:18:14;2.50;92.20
22173;DHT22;11252;50.596;17.648;2023-04-07T03:20:42;2.50;92.20
22173;DHT22;11252;50.596;17.648;2023-04-07T03:23:10;2.50;92.20
22173;DHT22;11252;50.596;17.648;2023-04-07T03:25:37;2.50;92.20
22173;DHT22;11252;50.596;17.648;2023-04-07T03:28:05;2.50;92.20
22173;DHT22;11252;50.596;17.648;2023-04-07T03:30:32;2.50;92.20
22173;DHT22;11252;50.596;17.648;2023-04-07T03:33:00;2.60;92.20
22173;DHT22;11252;50.596;17.648;2023-04-07T03:35:27;2.60;92.20
22173;DHT22;11252;50.596;17.648;2023-04-07T03:37:54;2.60;92.20
22173;DHT22;11252;50.596;17.648;2023-04-07T03:40:21;2.60;92.20
22173;DHT22;11252;50.596;17.648;2023-04-07T03:42:49;2.60;92.20
22173;DHT22;11252;50.596;17.648;2023-04-07T03:45:16;2.60;92.20
22173;DHT22;11252;50.596;17.648;2023-04-07T03:47:43;2.60;92.20
22173;DHT22;11252;50.596;17.648;2023-04-07T03:50:11;2.60;92.20
22173;DHT22;11252;50.596;17.648;2023-04-07T03:52:38;2.60;92.20
22173;DHT22;11252;50.596;17.648;2023-04-07T03:55:06;2.60;92.20
22173;DHT22;11252;50.596;17.648;2023-04-07T03:57:33;2.50;92.20
22173;DHT22;11252;50.596;17.648;2023-04-07T04:00:01;2.60;92.20
22173;DHT22;11252;50.596;17.648;2023-04-07T04:02:29;2.50;92.20
22173;DHT22;11252;50.596;17.648;2023-04-07T04:04:57;2.60;92.20
22173;DHT22;11252;50.596;17.648;2023-04-07T04:07:24;2.60;92.20
22173;DHT22;11252;50.596;17.648;2023-04-07T04:09:53;2.60;92.20
22173;DHT22;11252;50.596;17.648;2023-04-07T04:12:20;2.60;92.20
22173;DHT22;11252;50.596;17.648;2023-04-07T04:14:47;2.60;92.20
22173;DHT22;11252;50.596;17.648;2023-04-07T04:17:15;2.60;92.20
22173;DHT22;11252;50.596;17.648;2023-04-07T04:19:42;2.50;92.20
22173;DHT22;11252;50.596;17.648;2023-04-07T04:22:09;2.50;92.20
22173;DHT22;11252;50.596;17.648;2023-04-07T04:24:37;2.50;92.20
22173;DHT22;11252;50.596;17.648;2023-04-07T04:27:04;2.60;92.20
22173;DHT22;11252;50.596;17.648;2023-04-07T04:29:32;2.50;92.20
22173;DHT22;11252;50.596;17.648;2023-04-07T04:31:59;2.60;92.20
22173;DHT22;11252;50.596;17.648;2023-04-07T04:34:26;2.50;92.20
22173;DHT22;11252;50.596;17.648;2023-04-07T04:36:54;2.50;92.20
22173;DHT22;11252;50.596;17.648;2023-04-07T04:39:21;2.50;92.20
22173;DHT22;11252;50.596;17.648;2023-04-07T04:41:48;2.50;92.20
22173;DHT22;11252;50.596;17.648;2023-04-07T04:44:16;2.50;92.20
22173;DHT22;11252;50.596;17.648;2023-04-07T04:46:43;2.50;92.20
22173;DHT22;11252;50.596;17.648;2023-04-07T04:49:10;2.50;92.20
22173;DHT22;11252;50.596;17.648;2023-04-07T04:51:38;2.50;92.20
22173;DHT22;11252;50.596;17.648;2023-04-07T04:54:05;2.50;92.20
22173;DHT22;11252;50.596;17.648;2023-04-07T04:56:33;2.50;92.20
22173;DHT22;11252;50.596;17.648;2023-04-07T04:59:00;2.50;92.20
22173;DHT22;11252;50.596;17.648;2023-04-07T05:01:28;2.40;92.20
22173;DHT22;11252;50.596;17.648;2023-04-07T05:03:58;2.40;92.20
22173;DHT22;11252;50.596;17.648;2023-04-07T05:06:27;2.50;92.20
22173;DHT22;11252;50.596;17.648;2023-04-07T05:08:54;2.50;92.20
22173;DHT22;11252;50.596;17.648;2023-04-07T05:11:21;2.40;92.20
22173;DHT22;11252;50.596;17.648;2023-04-07T05:13:48;2.40;92.20
22173;DHT22;11252;50.596;17.648;2023-04-07T05:16:16;2.40;92.20
22173;DHT22;11252;50.596;17.648;2023-04-07T05:18:44;2.40;92.20
22173;DHT22;11252;50.596;17.648;2023-04-07T05:21:11;2.40;92.20
22173;DHT22;11252;50.596;17.648;2023-04-07T05:23:39;2.30;92.20
22173;DHT22;11252;50.596;17.648;2023-04-07T05:26:07;2.30;92.20
22173;DHT22;11252;50.596;17.648;2023-04-07T05:28:34;2.20;92.20
22173;DHT22;11252;50.596;17.648;2023-04-07T05:31:01;2.20;92.20
22173;DHT22;11252;50.596;17.648;2023-04-07T05:33:30;2.20;92.20
22173;DHT22;11252;50.596;17.648;2023-04-07T05:35:58;2.10;92.20
22173;DHT22;11252;50.596;17.648;2023-04-07T05:38:25;2.10;92.20
22173;DHT22;11252;50.596;17.648;2023-04-07T05:40:52;2.10;92.20
22173;DHT22;11252;50.596;17.648;2023-04-07T05:43:19;2.20;92.20
22173;DHT22;11252;50.596;17.648;2023-04-07T05:45:47;2.20;92.20
22173;DHT22;11252;50.596;17.648;2023-04-07T05:48:14;2.20;92.20
22173;DHT22;11252;50.596;17.648;2023-04-07T05:50:42;2.20;92.20
22173;DHT22;11252;50.596;17.648;2023-04-07T05:53:12;2.20;92.20
22173;DHT22;11252;50.596;17.648;2023-04-07T05:55:42;2.20;92.20
22173;DHT22;11252;50.596;17.648;2023-04-07T05:58:09;2.20;92.20
22173;DHT22;11252;50.596;17.648;2023-04-07T06:00:37;2.20;92.20
22173;DHT22;11252;50.596;17.648;2023-04-07T06:03:04;2.20;92.20
22173;DHT22;11252;50.596;17.648;2023-04-07T06:05:31;2.20;92.20
22173;DHT22;11252;50.596;17.648;2023-04-07T06:08:00;2.20;92.20
22173;DHT22;11252;50.596;17.648;2023-04-07T06:10:27;2.20;92.20
22173;DHT22;11252;50.596;17.648;2023-04-07T06:12:55;2.20;92.20
22173;DHT22;11252;50.596;17.648;2023-04-07T06:15:23;2.30;92.20
22173;DHT22;11252;50.596;17.648;2023-04-07T06:17:50;2.30;92.20
22173;DHT22;11252;50.596;17.648;2023-04-07T06:20:18;2.30;92.20
22173;DHT22;11252;50.596;17.648;2023-04-07T06:22:47;2.30;92.20
22173;DHT22;11252;50.596;17.648;2023-04-07T06:25:14;2.20;92.20
22173;DHT22;11252;50.596;17.648;2023-04-07T06:27:42;2.20;92.20
22173;DHT22;11252;50.596;17.648;2023-04-07T06:30:09;2.20;92.20
22173;DHT22;11252;50.596;17.648;2023-04-07T06:32:36;2.30;92.20
22173;DHT22;11252;50.596;17.648;2023-04-07T06:35:04;2.30;92.20
22173;DHT22;11252;50.596;17.648;2023-04-07T06:37:32;2.30;92.20
22173;DHT22;11252;50.596;17.648;2023-04-07T06:39:59;2.30;92.20
22173;DHT22;11252;50.596;17.648;2023-04-07T06:42:26;2.40;92.20
22173;DHT22;11252;50.596;17.648;2023-04-07T06:44:54;2.40;92.20
22173;DHT22;11252;50.596;17.648;2023-04-07T06:47:21;2.40;92.20
22173;DHT22;11252;50.596;17.648;2023-04-07T06:49:49;2.40;92.20
22173;DHT22;11252;50.596;17.648;2023-04-07T06:52:16;2.50;92.20
22173;DHT22;11252;50.596;17.648;2023-04-07T06:54:43;2.40;92.20
22173;DHT22;11252;50.596;17.648;2023-04-07T06:57:10;2.50;92.20
22173;DHT22;11252;50.596;17.648;2023-04-07T06:59:38;2.50;92.20
22173;DHT22;11252;50.596;17.648;2023-04-07T07:02:05;2.50;92.20
22173;DHT22;11252;50.596;17.648;2023-04-07T07:04:34;2.50;92.20
22173;DHT22;11252;50.596;17.648;2023-04-07T07:07:01;2.50;92.20
22173;DHT22;11252;50.596;17.648;2023-04-07T07:09:29;2.60;92.20
22173;DHT22;11252;50.596;17.648;2023-04-07T07:11:56;2.60;92.20
22173;DHT22;11252;50.596;17.648;2023-04-07T07:14:24;2.60;92.20
22173;DHT22;11252;50.596;17.648;2023-04-07T07:16:51;2.60;92.20
22173;DHT22;11252;50.596;17.648;2023-04-07T07:19:18;2.60;92.20
22173;DHT22;11252;50.596;17.648;2023-04-07T07:21:45;2.60;92.20
22173;DHT22;11252;50.596;17.648;2023-04-07T07:24:12;2.60;92.20
22173;DHT22;11252;50.596;17.648;2023-04-07T07:26:40;2.60;92.20
22173;DHT22;11252;50.596;17.648;2023-04-07T07:29:10;2.60;92.20
22173;DHT22;11252;50.596;17.648;2023-04-07T07:31:37;2.70;92.20
22173;DHT22;11252;50.596;17.648;2023-04-07T07:34:05;2.70;92.20
22173;DHT22;11252;50.596;17.648;2023-04-07T07:36:32;2.60;92.20
22173;DHT22;11252;50.596;17.648;2023-04-07T07:38:59;2.60;92.20
22173;DHT22;11252;50.596;17.648;2023-04-07T07:41:27;2.70;92.20
22173;DHT22;11252;50.596;17.648;2023-04-07T07:43:54;2.70;92.20
22173;DHT22;11252;50.596;17.648;2023-04-07T07:46:22;2.70;92.20
22173;DHT22;11252;50.596;17.648;2023-04-07T07:48:52;2.70;92.20
22173;DHT22;11252;50.596;17.648;2023-04-07T07:51:19;2.70;92.20
22173;DHT22;11252;50.596;17.648;2023-04-07T07:53:46;2.80;92.20
22173;DHT22;11252;50.596;17.648;2023-04-07T07:56:14;2.80;92.20
22173;DHT22;11252;50.596;17.648;2023-04-07T07:58:41;2.80;92.20
22173;DHT22;11252;50.596;17.648;2023-04-07T08:01:09;2.80;92.20
22173;DHT22;11252;50.596;17.648;2023-04-07T08:03:37;2.80;92.20
22173;DHT22;11252;50.596;17.648;2023-04-07T08:06:04;2.80;92.20
22173;DHT22;11252;50.596;17.648;2023-04-07T08:08:32;2.90;92.20
22173;DHT22;11252;50.596;17.648;2023-04-07T08:10:59;2.90;92.20
22173;DHT22;11252;50.596;17.648;2023-04-07T08:13:27;2.90;92.20
22173;DHT22;11252;50.596;17.648;2023-04-07T08:15:54;2.90;92.20
22173;DHT22;11252;50.596;17.648;2023-04-07T08:18:21;3.00;92.20
22173;DHT22;11252;50.596;17.648;2023-04-07T08:20:49;3.00;92.20
22173;DHT22;11252;50.596;17.648;2023-04-07T08:23:17;3.10;92.20
22173;DHT22;11252;50.596;17.648;2023-04-07T08:25:45;3.10;92.20
22173;DHT22;11252;50.596;17.648;2023-04-07T08:28:12;3.10;92.20
22173;DHT22;11252;50.596;17.648;2023-04-07T08:30:39;3.10;92.20
22173;DHT22;11252;50.596;17.648;2023-04-07T08:33:06;3.10;92.20
22173;DHT22;11252;50.596;17.648;2023-04-07T08:35:34;3.10;92.20
22173;DHT22;11252;50.596;17.648;2023-04-07T08:38:01;3.10;92.20
22173;DHT22;11252;50.596;17.648;2023-04-07T08:40:29;3.20;92.20
22173;DHT22;11252;50.596;17.648;2023-04-07T08:42:59;3.20;92.20
22173;DHT22;11252;50.596;17.648;2023-04-07T08:45:27;3.20;92.20
22173;DHT22;11252;50.596;17.648;2023-04-07T08:47:55;3.30;92.20
22173;DHT22;11252;50.596;17.648;2023-04-07T08:50:26;3.20;92.20
22173;DHT22;11252;50.596;17.648;2023-04-07T08:52:55;3.20;92.20
22173;DHT22;11252;50.596;17.648;2023-04-07T08:55:23;3.30;92.20
22173;DHT22;11252;50.596;17.648;2023-04-07T08:57:52;3.40;92.20
22173;DHT22;11252;50.596;17.648;2023-04-07T09:00:20;3.50;92.20
22173;DHT22;11252;50.596;17.648;2023-04-07T09:02:48;3.60;92.20
22173;DHT22;11252;50.596;17.648;2023-04-07T09:05:17;3.80;92.20
22173;DHT22;11252;50.596;17.648;2023-04-07T09:07:48;3.80;92.20
22173;DHT22;11252;50.596;17.648;2023-04-07T09:10:15;3.90;92.20
22173;DHT22;11252;50.596;17.648;2023-04-07T09:12:43;4.00;92.20
22173;DHT22;11252;50.596;17.648;2023-04-07T09:15:11;4.00;92.20
22173;DHT22;11252;50.596;17.648;2023-04-07T09:17:38;3.90;92.20
22173;DHT22;11252;50.596;17.648;2023-04-07T09:20:07;3.90;92.20
22173;DHT22;11252;50.596;17.648;2023-04-07T09:22:42;3.80;92.20
22173;DHT22;11252;50.596;17.648;2023-04-07T09:25:19;3.80;92.20
22173;DHT22;11252;50.596;17.648;2023-04-07T09:28:00;3.80;92.20
22173;DHT22;11252;50.596;17.648;2023-04-07T09:30:32;3.80;92.20
22173;DHT22;11252;50.596;17.648;2023-04-07T09:33:00;3.80;92.20
22173;DHT22;11252;50.596;17.648;2023-04-07T09:35:27;3.90;92.20
22173;DHT22;11252;50.596;17.648;2023-04-07T09:38:06;3.90;92.20
22173;DHT22;11252;50.596;17.648;2023-04-07T09:40:34;3.90;92.20
22173;DHT22;11252;50.596;17.648;2023-04-07T09:43:03;4.00;92.20
22173;DHT22;11252;50.596;17.648;2023-04-07T09:45:32;4.00;92.20
22173;DHT22;11252;50.596;17.648;2023-04-07T09:48:24;4.00;92.20
22173;DHT22;11252;50.596;17.648;2023-04-07T09:51:08;4.10;92.20
22173;DHT22;11252;50.596;17.648;2023-04-07T09:53:43;4.00;92.20
22173;DHT22;11252;50.596;17.648;2023-04-07T09:56:12;4.00;92.20
22173;DHT22;11252;50.596;17.648;2023-04-07T09:58:39;4.00;92.20
22173;DHT22;11252;50.596;17.648;2023-04-07T10:01:08;4.00;92.20
22173;DHT22;11252;50.596;17.648;2023-04-07T10:03:38;4.10;92.20
22173;DHT22;11252;50.596;17.648;2023-04-07T10:06:06;4.10;92.20
22173;DHT22;11252;50.596;17.648;2023-04-07T10:08:35;4.00;92.20
22173;DHT22;11252;50.596;17.648;2023-04-07T10:11:04;4.00;92.20
22173;DHT22;11252;50.596;17.648;2023-04-07T10:13:34;4.10;92.20
22173;DHT22;11252;50.596;17.648;2023-04-07T10:16:06;4.10;92.20
22173;DHT22;11252;50.596;17.648;2023-04-07T10:18:35;4.20;92.20
22173;DHT22;11252;50.596;17.648;2023-04-07T10:21:04;4.20;92.20
22173;DHT22;11252;50.596;17.648;2023-04-07T10:23:48;4.30;92.20
22173;DHT22;11252;50.596;17.648;2023-04-07T10:26:22;4.30;92.20
22173;DHT22;11252;50.596;17.648;2023-04-07T10:28:54;4.40;92.20
22173;DHT22;11252;50.596;17.648;2023-04-07T10:31:23;4.50;92.20
22173;DHT22;11252;50.596;17.648;2023-04-07T10:33:52;4.40;92.20
22173;DHT22;11252;50.596;17.648;2023-04-07T10:36:21;4.40;92.20
22173;DHT22;11252;50.596;17.648;2023-04-07T10:41:38;4.40;92.20
22173;DHT22;11252;50.596;17.648;2023-04-07T10:44:07;4.30;92.20
22173;DHT22;11252;50.596;17.648;2023-04-07T10:49:15;4.30;92.20
22173;DHT22;11252;50.596;17.648;2023-04-07T10:54:41;4.30;92.20
22173;DHT22;11252;50.596;17.648;2023-04-07T10:57:12;4.30;92.20
22173;DHT22;11252;50.596;17.648;2023-04-07T11:00:27;4.30;92.20
22173;DHT22;11252;50.596;17.648;2023-04-07T11:02:30;4.30;92.20
22173;DHT22;11252;50.596;17.648;2023-04-07T11:04:58;4.30;92.20
22173;DHT22;11252;50.596;17.648;2023-04-07T11:07:46;4.40;92.20
22173;DHT22;11252;50.596;17.648;2023-04-07T11:10:16;4.40;92.20
22173;DHT22;11252;50.596;17.648;2023-04-07T11:13:00;4.50;92.20
22173;DHT22;11252;50.596;17.648;2023-04-07T11:15:28;4.50;92.20
22173;DHT22;11252;50.596;17.648;2023-04-07T11:18:13;4.40;92.20
22173;DHT22;11252;50.596;17.648;2023-04-07T11:20:42;4.50;92.20
22173;DHT22;11252;50.596;17.648;2023-04-07T11:23:12;4.50;92.20
22173;DHT22;11252;50.596;17.648;2023-04-07T11:25:45;4.50;92.20
22173;DHT22;11252;50.596;17.648;2023-04-07T11:28:13;4.50;92.20
22173;DHT22;11252;50.596;17.648;2023-04-07T11:30:48;4.40;92.20
22173;DHT22;11252;50.596;17.648;2023-04-07T11:33:19;4.30;92.20
22173;DHT22;11252;50.596;17.648;2023-04-07T11:35:48;4.40;92.20
22173;DHT22;11252;50.596;17.648;2023-04-07T11:38:16;4.40;92.20
22173;DHT22;11252;50.596;17.648;2023-04-07T11:40:46;4.40;92.20
22173;DHT22;11252;50.596;17.648;2023-04-07T11:46:06;4.40;92.20
22173;DHT22;11252;50.596;17.648;2023-04-07T11:48:35;4.40;92.20
22173;DHT22;11252;50.596;17.648;2023-04-07T11:51:03;4.40;92.20
22173;DHT22;11252;50.596;17.648;2023-04-07T11:53:34;4.40;92.20
22173;DHT22;11252;50.596;17.648;2023-04-07T11:56:07;4.50;92.20
22173;DHT22;11252;50.596;17.648;2023-04-07T11:58:36;4.60;92.20
22173;DHT22;11252;50.596;17.648;2023-04-07T12:01:05;4.60;92.20
22173;DHT22;11252;50.596;17.648;2023-04-07T12:03:36;4.60;92.20
22173;DHT22;11252;50.596;17.648;2023-04-07T12:06:04;4.50;92.20
22173;DHT22;11252;50.596;17.648;2023-04-07T12:08:41;4.50;92.20
22173;DHT22;11252;50.596;17.648;2023-04-07T12:11:08;4.40;92.20
22173;DHT22;11252;50.596;17.648;2023-04-07T12:13:37;4.50;92.20
22173;DHT22;11252;50.596;17.648;2023-04-07T12:16:04;4.40;92.20
22173;DHT22;11252;50.596;17.648;2023-04-07T12:18:32;4.40;92.20
22173;DHT22;11252;50.596;17.648;2023-04-07T12:20:59;4.50;92.20
22173;DHT22;11252;50.596;17.648;2023-04-07T12:23:27;4.50;92.20
22173;DHT22;11252;50.596;17.648;2023-04-07T12:25:54;4.60;92.20
22173;DHT22;11252;50.596;17.648;2023-04-07T12:28:21;4.60;92.20
22173;DHT22;11252;50.596;17.648;2023-04-07T12:30:49;4.60;92.20
22173;DHT22;11252;50.596;17.648;2023-04-07T12:33:16;4.60;92.20
22173;DHT22;11252;50.596;17.648;2023-04-07T12:35:44;4.60;92.20
22173;DHT22;11252;50.596;17.648;2023-04-07T12:38:11;4.60;92.20
22173;DHT22;11252;50.596;17.648;2023-04-07T12:40:38;4.60;92.20
22173;DHT22;11252;50.596;17.648;2023-04-07T12:43:06;4.60;92.20
22173;DHT22;11252;50.596;17.648;2023-04-07T12:45:33;4.70;92.20
22173;DHT22;11252;50.596;17.648;2023-04-07T12:48:01;4.70;92.20
22173;DHT22;11252;50.596;17.648;2023-04-07T12:50:28;4.80;92.20
22173;DHT22;11252;50.596;17.648;2023-04-07T12:52:56;4.80;92.20
22173;DHT22;11252;50.596;17.648;2023-04-07T12:55:25;4.80;92.20
22173;DHT22;11252;50.596;17.648;2023-04-07T12:57:53;4.80;92.20
22173;DHT22;11252;50.596;17.648;2023-04-07T13:00:22;4.80;92.20
22173;DHT22;11252;50.596;17.648;2023-04-07T13:02:50;4.70;92.20
22173;DHT22;11252;50.596;17.648;2023-04-07T13:05:18;4.70;92.20
22173;DHT22;11252;50.596;17.648;2023-04-07T13:07:46;4.70;92.20
22173;DHT22;11252;50.596;17.648;2023-04-07T13:10:15;4.70;92.20
22173;DHT22;11252;50.596;17.648;2023-04-07T13:12:42;4.70;92.20
22173;DHT22;11252;50.596;17.648;2023-04-07T13:15:10;4.70;92.20
22173;DHT22;11252;50.596;17.648;2023-04-07T13:17:37;4.70;92.20
22173;DHT22;11252;50.596;17.648;2023-04-07T13:20:05;4.60;92.20
22173;DHT22;11252;50.596;17.648;2023-04-07T13:22:33;4.60;92.20
22173;DHT22;11252;50.596;17.648;2023-04-07T13:25:02;4.60;92.20
22173;DHT22;11252;50.596;17.648;2023-04-07T13:27:29;4.60;92.20
22173;DHT22;11252;50.596;17.648;2023-04-07T13:29:56;4.60;92.20
22173;DHT22;11252;50.596;17.648;2023-04-07T13:32:24;4.60;92.20
22173;DHT22;11252;50.596;17.648;2023-04-07T13:34:51;4.60;92.20
22173;DHT22;11252;50.596;17.648;2023-04-07T13:37:19;4.70;92.20
22173;DHT22;11252;50.596;17.648;2023-04-07T13:39:47;4.80;92.20
22173;DHT22;11252;50.596;17.648;2023-04-07T13:42:14;4.80;92.20
22173;DHT22;11252;50.596;17.648;2023-04-07T13:44:43;4.70;92.20
22173;DHT22;11252;50.596;17.648;2023-04-07T13:47:14;4.80;92.20
22173;DHT22;11252;50.596;17.648;2023-04-07T13:49:46;4.80;92.20
22173;DHT22;11252;50.596;17.648;2023-04-07T13:52:14;4.90;92.20
22173;DHT22;11252;50.596;17.648;2023-04-07T13:54:42;4.90;92.20
22173;DHT22;11252;50.596;17.648;2023-04-07T13:57:10;4.90;92.20
22173;DHT22;11252;50.596;17.648;2023-04-07T13:59:38;4.90;92.20
22173;DHT22;11252;50.596;17.648;2023-04-07T14:02:05;4.90;92.20
22173;DHT22;11252;50.596;17.648;2023-04-07T14:04:35;4.90;92.20
22173;DHT22;11252;50.596;17.648;2023-04-07T14:07:03;4.90;92.20
22173;DHT22;11252;50.596;17.648;2023-04-07T14:09:30;4.80;92.20
22173;DHT22;11252;50.596;17.648;2023-04-07T14:11:58;4.80;92.20
22173;DHT22;11252;50.596;17.648;2023-04-07T14:14:25;4.70;92.20
22173;DHT22;11252;50.596;17.648;2023-04-07T14:16:53;4.70;92.20
22173;DHT22;11252;50.596;17.648;2023-04-07T14:19:21;4.60;92.20
22173;DHT22;11252;50.596;17.648;2023-04-07T14:21:50;4.50;92.20
22173;DHT22;11252;50.596;17.648;2023-04-07T14:24:18;4.50;92.20
22173;DHT22;11252;50.596;17.648;2023-04-07T14:26:46;4.50;92.20
22173;DHT22;11252;50.596;17.648;2023-04-07T14:29:14;4.50;92.20
22173;DHT22;11252;50.596;17.648;2023-04-07T14:31:41;4.50;92.20
22173;DHT22;11252;50.596;17.648;2023-04-07T14:34:08;4.40;92.20
22173;DHT22;11252;50.596;17.648;2023-04-07T14:36:35;4.40;92.20
22173;DHT22;11252;50.596;17.648;2023-04-07T14:39:03;4.50;92.20
22173;DHT22;11252;50.596;17.648;2023-04-07T14:41:30;4.50;92.20
22173;DHT22;11252;50.596;17.648;2023-04-07T14:43:58;4.60;92.20
22173;DHT22;11252;50.596;17.648;2023-04-07T14:46:25;4.60;92.20
22173;DHT22;11252;50.596;17.648;2023-04-07T14:48:53;4.60;92.20
22173;DHT22;11252;50.596;17.648;2023-04-07T14:51:20;4.60;92.20
22173;DHT22;11252;50.596;17.648;2023-04-07T14:53:48;4.50;92.20
22173;DHT22;11252;50.596;17.648;2023-04-07T14:56:22;4.50;92.20
22173;DHT22;11252;50.596;17.648;2023-04-07T14:58:51;4.50;92.20
22173;DHT22;11252;50.596;17.648;2023-04-07T15:01:19;4.50;92.20
22173;DHT22;11252;50.596;17.648;2023-04-07T15:03:46;4.50;92.20
22173;DHT22;11252;50.596;17.648;2023-04-07T15:06:14;4.50;92.20
22173;DHT22;11252;50.596;17.648;2023-04-07T15:08:42;4.50;92.20
22173;DHT22;11252;50.596;17.648;2023-04-07T15:11:12;4.50;92.20
22173;DHT22;11252;50.596;17.648;2023-04-07T15:13:39;4.40;92.20
22173;DHT22;11252;50.596;17.648;2023-04-07T15:16:11;4.40;92.20
22173;DHT22;11252;50.596;17.648;2023-04-07T15:18:41;4.50;92.20
22173;DHT22;11252;50.596;17.648;2023-04-07T15:21:11;4.40;92.20
22173;DHT22;11252;50.596;17.648;2023-04-07T15:23:39;4.50;92.20
22173;DHT22;11252;50.596;17.648;2023-04-07T15:26:08;4.50;92.20
22173;DHT22;11252;50.596;17.648;2023-04-07T15:28:35;4.50;92.20
22173;DHT22;11252;50.596;17.648;2023-04-07T15:31:04;4.50;92.20
22173;DHT22;11252;50.596;17.648;2023-04-07T15:33:36;4.50;92.20
22173;DHT22;11252;50.596;17.648;2023-04-07T15:36:06;4.50;92.20
22173;DHT22;11252;50.596;17.648;2023-04-07T15:38:34;4.50;92.20
22173;DHT22;11252;50.596;17.648;2023-04-07T15:41:03;4.50;92.20
22173;DHT22;11252;50.596;17.648;2023-04-07T15:43:36;4.50;92.20
22173;DHT22;11252;50.596;17.648;2023-04-07T15:46:06;4.50;92.20
22173;DHT22;11252;50.596;17.648;2023-04-07T15:48:34;4.40;92.20
22173;DHT22;11252;50.596;17.648;2023-04-07T15:51:02;4.50;92.20
22173;DHT22;11252;50.596;17.648;2023-04-07T15:53:29;4.40;92.20
22173;DHT22;11252;50.596;17.648;2023-04-07T15:55:57;4.50;92.20
22173;DHT22;11252;50.596;17.648;2023-04-07T15:58:24;4.40;92.20
22173;DHT22;11252;50.596;17.648;2023-04-07T16:00:51;4.40;92.20